createdAt,value
2018-09-14T00:00:27.327Z,15.04
2018-09-14T00:02:56.242Z,14.96
2018-09-14T00:05:25.188Z,15.04
2018-09-14T00:07:54.115Z,15.00
2018-09-14T00:10:23.072Z,15.05
2018-09-14T00:12:52.028Z,15.02
2018-09-14T00:15:20.957Z,14.96
2018-09-14T00:17:49.901Z,15.00
2018-09-14T00:20:18.837Z,14.99
2018-09-14T00:22:47.873Z,14.96
2018-09-14T00:25:19.542Z,14.95
2018-09-14T00:27:48.518Z,14.91
2018-09-14T00:30:17.476Z,14.90
2018-09-14T00:32:46.465Z,14.92
2018-09-14T00:35:15.393Z,14.94
2018-09-14T00:37:44.320Z,14.95
2018-09-14T00:40:13.618Z,14.90
2018-09-14T00:42:42.540Z,14.91
2018-09-14T00:45:11.593Z,14.94
2018-09-14T00:47:40.523Z,15.01
2018-09-14T00:50:09.473Z,15.03
2018-09-14T00:52:38.453Z,14.97
2018-09-14T00:55:07.453Z,14.98
2018-09-14T00:57:36.383Z,14.94
2018-09-14T01:00:05.729Z,14.97
2018-09-14T01:02:34.999Z,14.90
2018-09-14T01:05:03.991Z,14.87
2018-09-14T01:07:34.833Z,14.85
2018-09-14T01:10:04.834Z,14.93
2018-09-14T01:12:33.759Z,14.97
2018-09-14T01:15:02.731Z,14.95
2018-09-14T01:17:31.717Z,14.96
2018-09-14T01:20:00.641Z,15.01
2018-09-14T01:22:29.600Z,14.95
2018-09-14T01:24:58.491Z,14.98
2018-09-14T01:27:27.486Z,15.00
2018-09-14T01:29:56.402Z,15.00
2018-09-14T01:32:25.336Z,14.97
2018-09-14T01:34:54.309Z,14.93
2018-09-14T01:37:23.231Z,14.92
2018-09-14T01:39:52.164Z,14.92
2018-09-14T01:42:21.109Z,14.91
2018-09-14T01:44:50.054Z,14.96
2018-09-14T01:47:19.019Z,14.92
2018-09-14T01:49:47.915Z,14.94
2018-09-14T01:52:16.864Z,14.90
2018-09-14T01:54:45.787Z,14.93
2018-09-14T01:57:14.741Z,15.02
2018-09-14T01:59:44.727Z,14.95
2018-09-14T02:02:13.648Z,15.03
2018-09-14T02:04:42.585Z,15.01
2018-09-14T02:07:11.489Z,14.98
2018-09-14T02:09:40.412Z,15.05
2018-09-14T02:12:09.492Z,15.05
2018-09-14T02:14:38.737Z,14.93
2018-09-14T02:17:07.734Z,14.92
2018-09-14T02:19:36.655Z,15.04
2018-09-14T02:22:05.842Z,15.03
2018-09-14T02:24:34.766Z,14.92
2018-09-14T02:27:03.684Z,14.93
2018-09-14T02:29:32.627Z,14.97
2018-09-14T02:32:01.637Z,15.00
2018-09-14T02:34:30.768Z,14.98
2018-09-14T02:36:59.688Z,14.92
2018-09-14T02:39:28.622Z,14.92
2018-09-14T02:41:57.579Z,14.89
2018-09-14T02:44:26.487Z,14.87
2018-09-14T02:46:55.398Z,14.88
2018-09-14T02:49:24.332Z,14.91
2018-09-14T02:51:53.251Z,14.90
2018-09-14T02:54:22.191Z,14.85
2018-09-14T02:56:51.129Z,14.94
2018-09-14T02:59:20.048Z,14.86
2018-09-14T03:01:48.971Z,14.87
2018-09-14T03:04:17.916Z,14.88
2018-09-14T03:06:46.856Z,14.88
2018-09-14T03:09:15.794Z,14.89
2018-09-14T03:11:44.720Z,14.89
2018-09-14T03:14:13.673Z,14.90
2018-09-14T03:16:42.698Z,14.95
2018-09-14T03:19:11.625Z,14.98
2018-09-14T03:21:40.557Z,15.02
2018-09-14T03:24:09.498Z,14.95
2018-09-14T03:26:38.404Z,15.01
2018-09-14T03:29:07.338Z,15.02
2018-09-14T03:31:36.252Z,14.94
2018-09-14T03:34:05.171Z,14.92
2018-09-14T03:36:34.116Z,14.96
2018-09-14T03:39:03.037Z,14.91
2018-09-14T03:41:31.948Z,14.87
2018-09-14T03:44:00.884Z,14.80
2018-09-14T03:46:29.843Z,14.81
2018-09-14T03:48:58.786Z,14.77
2018-09-14T03:51:27.818Z,14.86
2018-09-14T03:53:56.751Z,14.85
2018-09-14T03:56:25.684Z,14.80
2018-09-14T03:58:54.591Z,14.83
2018-09-14T04:01:23.530Z,14.84
2018-09-14T04:03:52.441Z,14.71
2018-09-14T04:06:21.384Z,14.79
2018-09-14T04:08:50.421Z,14.74
2018-09-14T04:11:19.465Z,14.70
2018-09-14T04:13:48.382Z,14.71
2018-09-14T04:16:17.380Z,14.69
2018-09-14T04:18:52.104Z,14.69
2018-09-14T04:21:21.075Z,14.65
2018-09-14T04:23:49.993Z,14.65
2018-09-14T04:26:18.873Z,14.65
2018-09-14T04:28:47.796Z,14.63
2018-09-14T04:31:16.747Z,14.64
2018-09-14T04:33:45.660Z,14.72
2018-09-14T04:36:14.556Z,14.66
2018-09-14T04:38:43.666Z,14.61
2018-09-14T04:41:12.523Z,14.61
2018-09-14T04:43:41.524Z,14.59
2018-09-14T04:46:10.524Z,14.67
2018-09-14T04:48:39.556Z,14.99
2018-09-14T04:51:08.487Z,15.12
2018-09-14T04:53:37.426Z,15.14
2018-09-14T04:56:07.013Z,15.27
2018-09-14T04:58:35.911Z,15.48
2018-09-14T05:01:05.231Z,15.44
2018-09-14T05:03:34.200Z,15.35
2018-09-14T05:06:03.213Z,15.46
2018-09-14T05:08:32.134Z,15.18
2018-09-14T05:11:01.109Z,15.26
2018-09-14T05:13:30.075Z,14.97
2018-09-14T05:15:59.007Z,14.84
2018-09-14T05:18:27.930Z,14.67
2018-09-14T05:20:57.011Z,14.61
2018-09-14T05:23:26.249Z,14.54
2018-09-14T05:25:56.331Z,14.46
2018-09-14T05:28:25.816Z,14.45
2018-09-14T05:30:55.601Z,14.51
2018-09-14T05:33:25.729Z,14.44
2018-09-14T05:35:54.708Z,14.45
2018-09-14T05:38:23.666Z,14.41
2018-09-14T05:40:52.575Z,14.48
2018-09-14T05:43:21.486Z,14.44
2018-09-14T05:45:50.553Z,14.38
2018-09-14T05:48:19.417Z,14.37
2018-09-14T05:50:48.400Z,14.41
2018-09-14T05:53:17.340Z,14.34
2018-09-14T05:55:46.362Z,14.46
2018-09-14T05:58:15.344Z,14.42
2018-09-14T06:00:44.299Z,14.43
2018-09-14T06:03:13.205Z,14.44
2018-09-14T06:05:42.166Z,14.43
2018-09-14T06:08:11.095Z,14.50
2018-09-14T06:10:40.032Z,14.47
2018-09-14T06:13:08.959Z,14.42
2018-09-14T06:15:37.864Z,14.48
2018-09-14T06:18:06.772Z,14.47
2018-09-14T06:20:35.729Z,14.51
2018-09-14T06:23:04.726Z,14.47
2018-09-14T06:25:33.553Z,14.49
2018-09-14T06:28:02.478Z,14.57
2018-09-14T06:30:31.413Z,14.48
2018-09-14T06:33:00.431Z,14.50
2018-09-14T06:35:29.329Z,14.49
2018-09-14T06:37:58.271Z,14.57
2018-09-14T06:40:27.214Z,14.55
2018-09-14T06:42:56.137Z,14.51
2018-09-14T06:45:25.083Z,14.52
2018-09-14T06:47:53.989Z,14.48
2018-09-14T06:50:22.921Z,14.47
2018-09-14T06:52:51.843Z,14.42
2018-09-14T06:55:20.796Z,14.52
2018-09-14T06:57:49.727Z,14.63
2018-09-14T07:00:18.765Z,14.61
2018-09-14T07:02:47.572Z,14.72
2018-09-14T07:05:16.504Z,14.70
2018-09-14T07:07:45.424Z,14.65
2018-09-14T07:10:14.362Z,14.59
2018-09-14T07:12:43.276Z,14.69
2018-09-14T07:15:12.201Z,14.67
2018-09-14T07:17:41.099Z,14.64
2018-09-14T07:20:10.035Z,14.67
2018-09-14T07:22:39.161Z,14.75
2018-09-14T07:25:08.069Z,14.77
2018-09-14T07:27:37.007Z,14.75
2018-09-14T07:30:05.961Z,14.75
2018-09-14T07:32:34.888Z,14.75
2018-09-14T07:35:03.813Z,14.79
2018-09-14T07:37:32.749Z,14.83
2018-09-14T07:40:01.679Z,14.81
2018-09-14T07:42:30.660Z,14.79
2018-09-14T07:44:59.556Z,14.91
2018-09-14T07:47:28.501Z,14.92
2018-09-14T07:49:57.480Z,14.97
2018-09-14T07:52:26.453Z,15.06
2018-09-14T07:54:55.463Z,15.04
2018-09-14T07:57:24.390Z,15.10
2018-09-14T07:59:53.336Z,15.11
2018-09-14T08:02:22.318Z,15.09
2018-09-14T08:04:51.279Z,15.07
2018-09-14T08:07:20.196Z,15.07
2018-09-14T08:09:49.121Z,15.11
2018-09-14T08:12:18.064Z,15.12
2018-09-14T08:14:49.131Z,15.08
2018-09-14T08:17:18.037Z,15.19
2018-09-14T08:19:46.950Z,15.20
2018-09-14T08:22:15.857Z,15.24
2018-09-14T08:24:44.810Z,15.25
2018-09-14T08:27:14.667Z,15.14
2018-09-14T08:29:43.552Z,15.08
2018-09-14T08:32:12.494Z,15.07
2018-09-14T08:34:41.389Z,15.09
2018-09-14T08:37:10.314Z,15.10
2018-09-14T08:39:39.232Z,15.04
2018-09-14T08:42:08.142Z,14.92
2018-09-14T08:44:37.064Z,15.10
2018-09-14T08:47:06.056Z,14.94
2018-09-14T08:49:34.992Z,15.01
2018-09-14T08:52:03.925Z,14.95
2018-09-14T08:54:33.022Z,14.97
2018-09-14T08:57:02.029Z,15.04
2018-09-14T08:59:30.944Z,15.09
2018-09-14T09:01:59.846Z,15.21
2018-09-14T09:04:28.796Z,15.29
2018-09-14T09:06:57.707Z,15.32
2018-09-14T09:09:26.745Z,15.39
2018-09-14T09:11:55.689Z,15.49
2018-09-14T09:14:24.584Z,15.56
2018-09-14T09:16:53.529Z,15.57
2018-09-14T09:19:22.502Z,15.67
2018-09-14T09:21:51.650Z,15.77
2018-09-14T09:24:20.605Z,15.80
2018-09-14T09:26:49.525Z,15.90
2018-09-14T09:29:18.450Z,15.94
2018-09-14T09:31:47.392Z,16.14
2018-09-14T09:34:16.511Z,16.09
2018-09-14T09:36:45.471Z,16.05
2018-09-14T09:39:14.365Z,16.15
2018-09-14T09:41:43.315Z,16.33
2018-09-14T09:44:12.216Z,16.60
2018-09-14T09:46:41.119Z,16.67
2018-09-14T09:49:10.137Z,16.72
2018-09-14T09:51:39.035Z,16.65
2018-09-14T09:54:07.954Z,16.61
2018-09-14T09:56:36.927Z,16.66
2018-09-14T09:59:05.818Z,16.78
2018-09-14T10:01:37.393Z,16.80
2018-09-14T10:04:11.957Z,16.91
2018-09-14T10:06:40.758Z,17.21
2018-09-14T10:09:09.902Z,17.38
2018-09-14T10:11:38.875Z,17.49
2018-09-14T10:14:07.818Z,17.66
2018-09-14T10:16:36.724Z,17.83
2018-09-14T10:19:05.868Z,17.83
2018-09-14T10:21:35.183Z,18.12
2018-09-14T10:24:04.384Z,18.12
2018-09-14T10:26:33.395Z,17.93
2018-09-14T10:29:02.540Z,17.71
2018-09-14T10:31:31.363Z,17.67
2018-09-14T10:34:00.337Z,17.64
2018-09-14T10:36:29.204Z,17.34
2018-09-14T10:38:58.116Z,17.25
2018-09-14T10:41:27.068Z,17.25
2018-09-14T10:43:56.032Z,17.31
2018-09-14T10:46:24.952Z,17.31
2018-09-14T10:48:53.900Z,17.64
2018-09-14T10:51:22.793Z,17.94
2018-09-14T10:53:51.712Z,17.97
2018-09-14T10:56:20.651Z,18.37
2018-09-14T10:58:49.548Z,18.68
2018-09-14T11:01:18.484Z,18.96
2018-09-14T11:03:47.416Z,19.19
2018-09-14T11:06:16.320Z,19.46
2018-09-14T11:08:45.241Z,19.45
2018-09-14T11:11:14.151Z,19.07
2018-09-14T11:13:43.163Z,19.02
2018-09-14T11:16:12.138Z,18.77
2018-09-14T11:18:41.163Z,18.65
2018-09-14T11:21:10.008Z,18.44
2018-09-14T11:23:39.006Z,18.17
2018-09-14T11:26:07.942Z,17.81
2018-09-14T11:28:37.124Z,17.95
2018-09-14T11:31:06.240Z,18.27
2018-09-14T11:33:35.185Z,18.12
2018-09-14T11:36:04.131Z,18.32
2018-09-14T11:38:33.217Z,18.14
2018-09-14T11:41:02.063Z,18.00
2018-09-14T11:43:30.981Z,18.12
2018-09-14T11:46:00.183Z,18.15
2018-09-14T11:48:29.063Z,18.45
2018-09-14T11:50:58.026Z,18.46
2018-09-14T11:53:27.001Z,18.46
2018-09-14T11:55:55.969Z,18.12
2018-09-14T11:58:24.948Z,17.99
2018-09-14T12:00:53.958Z,18.07
2018-09-14T12:03:23.099Z,17.82
2018-09-14T12:05:52.101Z,17.51
2018-09-14T12:08:21.035Z,17.52
2018-09-14T12:10:50.051Z,17.43
2018-09-14T12:13:19.096Z,17.51
2018-09-14T12:15:48.045Z,17.85
2018-09-14T12:18:16.997Z,17.77
2018-09-14T12:20:45.966Z,17.98
2018-09-14T12:23:14.956Z,17.75
2018-09-14T12:25:43.905Z,17.73
2018-09-14T12:28:13.066Z,17.91
2018-09-14T12:30:42.042Z,17.97
2018-09-14T12:33:10.971Z,17.88
2018-09-14T12:35:39.946Z,17.99
2018-09-14T12:38:08.938Z,17.95
2018-09-14T12:40:37.906Z,17.97
2018-09-14T12:43:06.852Z,18.02
2018-09-14T12:45:35.802Z,17.93
2018-09-14T12:48:04.829Z,18.17
2018-09-14T12:50:33.834Z,18.38
2018-09-14T12:53:02.771Z,18.53
2018-09-14T12:55:31.787Z,18.49
2018-09-14T12:58:00.805Z,18.45
2018-09-14T13:00:29.834Z,18.22
2018-09-14T13:02:58.827Z,18.14
2018-09-14T13:05:27.772Z,18.50
2018-09-14T13:07:56.726Z,18.76
2018-09-14T13:10:25.694Z,18.87
2018-09-14T13:12:54.641Z,18.72
2018-09-14T13:15:23.647Z,18.59
2018-09-14T13:17:52.646Z,18.74
2018-09-14T13:20:21.616Z,19.06
2018-09-14T13:22:53.017Z,19.20
2018-09-14T13:25:21.999Z,18.98
2018-09-14T13:27:50.924Z,19.45
2018-09-14T13:30:20.072Z,19.39
2018-09-14T13:32:51.722Z,19.54
2018-09-14T13:35:22.464Z,19.25
2018-09-14T13:37:51.962Z,19.28
2018-09-14T13:40:21.164Z,19.49
2018-09-14T13:42:50.671Z,19.54
2018-09-14T13:45:19.613Z,19.60
2018-09-14T13:47:48.554Z,19.80
2018-09-14T13:50:17.499Z,19.64
2018-09-14T13:52:46.498Z,19.50
2018-09-14T13:55:15.589Z,19.63
2018-09-14T13:57:44.510Z,19.42
2018-09-14T14:00:13.565Z,19.25
2018-09-14T14:02:42.497Z,19.21
2018-09-14T14:05:11.532Z,18.94
2018-09-14T14:07:40.510Z,19.34
2018-09-14T14:10:09.491Z,19.55
2018-09-14T14:12:38.352Z,19.61
2018-09-14T14:15:07.422Z,19.69
2018-09-14T14:17:38.879Z,19.65
2018-09-14T14:20:07.765Z,19.48
2018-09-14T14:22:37.707Z,19.50
2018-09-14T14:25:06.773Z,19.79
2018-09-14T14:27:35.713Z,19.48
2018-09-14T14:30:04.678Z,19.31
2018-09-14T14:32:33.636Z,19.68
2018-09-14T14:35:02.609Z,19.64
2018-09-14T14:37:31.717Z,19.55
2018-09-14T14:40:00.691Z,19.94
2018-09-14T14:42:30.240Z,19.97
2018-09-14T14:44:59.182Z,19.69
2018-09-14T14:47:28.129Z,19.58
2018-09-14T14:49:57.072Z,19.60
2018-09-14T14:52:26.094Z,19.88
2018-09-14T14:57:22.950Z,19.99
2018-09-14T14:59:51.908Z,20.13
2018-09-14T15:02:20.871Z,20.22
2018-09-14T15:04:49.840Z,20.15
2018-09-14T15:07:18.763Z,20.18
2018-09-14T15:09:47.699Z,20.13
2018-09-14T15:12:16.645Z,20.07
2018-09-14T15:14:45.575Z,19.94
2018-09-14T15:17:14.545Z,19.68
2018-09-14T15:19:43.477Z,19.84
2018-09-14T15:22:12.421Z,19.91
2018-09-14T15:24:41.463Z,19.98
2018-09-14T15:27:10.393Z,19.77
2018-09-14T15:29:39.316Z,19.63
2018-09-14T15:32:08.333Z,19.45
2018-09-14T15:34:37.318Z,19.34
2018-09-14T15:37:06.483Z,19.22
2018-09-14T15:39:35.412Z,18.99
2018-09-14T15:42:04.948Z,19.09
2018-09-14T15:44:33.942Z,18.88
2018-09-14T15:47:02.869Z,18.81
2018-09-14T15:49:31.805Z,18.81
2018-09-14T15:52:00.769Z,18.73
2018-09-14T15:54:29.792Z,18.70
2018-09-14T15:56:58.801Z,18.75
2018-09-14T15:59:27.843Z,18.68
2018-09-14T16:01:56.798Z,18.59
2018-09-14T16:04:25.727Z,18.60
2018-09-14T16:06:58.719Z,18.43
2018-09-14T16:09:27.656Z,18.35
2018-09-14T16:11:56.645Z,18.36
2018-09-14T16:14:25.586Z,18.34
2018-09-14T16:16:54.518Z,18.18
2018-09-14T16:19:23.450Z,18.24
2018-09-14T16:21:52.426Z,18.13
2018-09-14T16:24:21.355Z,18.14
2018-09-14T16:26:50.380Z,18.12
2018-09-14T16:29:19.341Z,18.14
2018-09-14T16:31:48.432Z,18.10
2018-09-14T16:34:17.374Z,17.93
2018-09-14T16:36:46.433Z,17.90
2018-09-14T16:39:15.405Z,17.80
2018-09-14T16:41:44.375Z,17.76
2018-09-14T16:44:15.928Z,17.80
2018-09-14T16:46:44.887Z,17.80
2018-09-14T16:49:13.856Z,17.90
2018-09-14T16:51:43.119Z,17.71
2018-09-14T16:54:12.011Z,17.60
2018-09-14T16:56:41.338Z,17.59
2018-09-14T16:59:10.404Z,17.53
2018-09-14T17:01:39.365Z,17.50
2018-09-14T17:04:08.305Z,17.41
2018-09-14T17:06:37.288Z,17.44
2018-09-14T17:09:07.827Z,17.39
2018-09-14T17:11:36.959Z,17.37
2018-09-14T17:14:06.994Z,17.28
2018-09-14T17:16:36.999Z,17.23
2018-09-14T17:19:06.188Z,17.14
2018-09-14T17:21:35.273Z,17.12
2018-09-14T17:24:04.468Z,17.10
2018-09-14T17:26:33.490Z,17.08
2018-09-14T17:29:02.444Z,17.01
2018-09-14T17:31:31.638Z,17.00
2018-09-14T17:34:00.578Z,16.97
2018-09-14T17:36:29.541Z,16.95
2018-09-14T17:38:58.673Z,16.91
2018-09-14T17:41:27.798Z,16.87
2018-09-14T17:43:56.895Z,16.83
2018-09-14T17:46:26.016Z,16.78
2018-09-14T17:48:55.151Z,16.67
2018-09-14T17:51:32.081Z,16.64
2018-09-14T17:54:01.281Z,16.56
2018-09-14T17:56:30.423Z,16.48
2018-09-14T17:58:59.522Z,16.42
2018-09-14T18:01:28.602Z,16.36
2018-09-14T18:03:57.603Z,16.30
2018-09-14T18:06:26.542Z,16.19
2018-09-14T18:08:55.605Z,16.03
2018-09-14T18:11:25.027Z,15.86
2018-09-14T18:13:53.948Z,15.79
2018-09-14T18:16:22.920Z,15.64
2018-09-14T18:18:51.875Z,15.51
2018-09-14T18:21:20.831Z,15.49
2018-09-14T18:23:49.828Z,15.42
2018-09-14T18:26:18.806Z,15.34
2018-09-14T18:28:47.800Z,15.24
2018-09-14T18:31:17.140Z,15.18
2018-09-14T18:33:46.170Z,15.10
2018-09-14T18:36:15.383Z,15.07
2018-09-14T18:38:44.203Z,15.02
2018-09-14T18:41:13.192Z,14.90
2018-09-14T18:43:42.138Z,14.82
2018-09-14T18:46:11.155Z,14.74
2018-09-14T18:48:40.101Z,14.71
2018-09-14T18:51:09.115Z,14.65
2018-09-14T18:53:38.058Z,14.60
2018-09-14T18:56:07.490Z,14.59
2018-09-14T18:58:36.484Z,14.56
2018-09-14T19:01:05.420Z,14.59
2018-09-14T19:03:34.376Z,14.58
2018-09-14T19:06:03.377Z,14.60
2018-09-14T19:08:32.336Z,14.56
2018-09-14T19:11:02.455Z,14.52
2018-09-14T19:13:31.500Z,14.47
2018-09-14T19:16:00.441Z,14.45
2018-09-14T19:18:29.458Z,14.42
2018-09-14T19:20:58.417Z,14.35
2018-09-14T19:23:27.522Z,14.36
2018-09-14T19:25:56.480Z,14.34
2018-09-14T19:28:25.467Z,14.24
2018-09-14T19:30:54.415Z,14.17
2018-09-14T19:33:23.527Z,14.14
2018-09-14T19:35:52.549Z,14.10
2018-09-14T19:38:21.505Z,14.06
2018-09-14T19:40:50.472Z,14.06
2018-09-14T19:43:20.521Z,14.17
2018-09-14T19:45:50.767Z,14.24
2018-09-14T19:48:19.732Z,14.36
2018-09-14T19:50:48.849Z,14.58
2018-09-14T19:53:17.862Z,14.66
2018-09-14T19:55:46.961Z,14.77
2018-09-14T19:58:16.187Z,14.77
2018-09-14T20:00:45.164Z,14.80
2018-09-14T20:03:18.800Z,14.77
2018-09-14T20:05:47.854Z,14.69
2018-09-14T20:08:16.841Z,14.63
2018-09-14T20:10:45.842Z,14.54
2018-09-14T20:13:15.403Z,14.45
2018-09-14T20:15:44.430Z,14.39
2018-09-14T20:18:13.452Z,14.35
2018-09-14T20:20:42.464Z,14.32
2018-09-14T20:23:11.422Z,14.32
2018-09-14T20:25:40.489Z,14.29
2018-09-14T20:28:09.458Z,14.27
2018-09-14T20:30:38.565Z,14.22
2018-09-14T20:33:07.457Z,14.22
2018-09-14T20:35:36.415Z,14.16
2018-09-14T20:38:05.391Z,14.14
2018-09-14T20:40:34.945Z,14.15
2018-09-14T20:43:04.035Z,14.14
2018-09-14T20:45:33.126Z,14.12
2018-09-14T20:48:02.164Z,14.11
2018-09-14T20:50:32.571Z,14.05
2018-09-14T20:53:01.561Z,14.02
2018-09-14T20:55:30.651Z,14.02
2018-09-14T20:57:59.778Z,13.96
2018-09-14T21:00:28.797Z,13.94
2018-09-14T21:02:57.769Z,13.90
2018-09-14T21:05:26.787Z,13.85
2018-09-14T21:07:55.781Z,13.82
2018-09-14T21:10:24.726Z,13.82
2018-09-14T21:12:53.930Z,13.82
2018-09-14T21:15:22.862Z,13.77
2018-09-14T21:17:52.381Z,13.77
2018-09-14T21:20:21.360Z,13.74
2018-09-14T21:22:50.337Z,13.72
2018-09-14T21:25:19.304Z,13.74
2018-09-14T21:27:48.263Z,13.79
2018-09-14T21:30:17.709Z,13.78
2018-09-14T21:32:46.734Z,13.82
2018-09-14T21:35:15.725Z,13.85
2018-09-14T21:37:44.773Z,13.88
2018-09-14T21:40:13.769Z,13.89
2018-09-14T21:42:42.759Z,13.82
2018-09-14T21:45:11.798Z,13.83
2018-09-14T21:47:40.781Z,13.79
2018-09-14T21:50:09.789Z,13.77
2018-09-14T21:52:38.717Z,13.75
2018-09-14T21:55:07.652Z,13.76
2018-09-14T21:57:36.711Z,13.77
2018-09-14T22:00:11.258Z,13.75
2018-09-14T22:02:40.264Z,13.74
2018-09-14T22:05:09.221Z,13.73
2018-09-14T22:07:38.689Z,13.72
2018-09-14T22:10:08.085Z,13.65
2018-09-14T22:12:37.379Z,13.67
2018-09-14T22:15:06.340Z,13.65
2018-09-14T22:17:35.421Z,13.64
2018-09-14T22:20:04.570Z,13.67
2018-09-14T22:22:33.506Z,13.65
2018-09-14T22:25:02.506Z,13.65
2018-09-14T22:27:31.605Z,13.68
2018-09-14T22:30:00.546Z,13.70
2018-09-14T22:32:29.544Z,13.73
2018-09-14T22:34:58.457Z,13.73
2018-09-14T22:37:27.520Z,13.79
2018-09-14T22:39:56.581Z,13.74
2018-09-14T22:42:25.518Z,13.74
2018-09-14T22:44:54.632Z,13.72
2018-09-14T22:47:23.624Z,13.66
2018-09-14T22:49:52.563Z,13.68
2018-09-14T22:52:21.484Z,13.66
2018-09-14T22:54:50.420Z,13.66
2018-09-14T22:57:19.496Z,13.71
2018-09-14T22:59:48.477Z,13.70
2018-09-14T23:02:17.453Z,13.76
2018-09-14T23:04:46.386Z,13.77
2018-09-14T23:07:15.338Z,13.84
2018-09-14T23:09:44.278Z,13.89
2018-09-14T23:12:13.308Z,13.94
2018-09-14T23:14:42.266Z,13.94
2018-09-14T23:17:11.207Z,13.96
2018-09-14T23:19:40.159Z,13.98
2018-09-14T23:22:09.164Z,14.02
2018-09-14T23:24:38.094Z,13.99
2018-09-14T23:27:07.019Z,14.03
2018-09-14T23:29:35.939Z,14.12
2018-09-14T23:32:05.014Z,14.09
2018-09-14T23:34:33.946Z,14.07
2018-09-14T23:37:02.891Z,14.01
2018-09-14T23:39:31.826Z,14.04
2018-09-14T23:42:00.751Z,14.02
2018-09-14T23:44:29.705Z,14.06
2018-09-14T23:46:58.655Z,14.08
2018-09-14T23:49:27.653Z,14.11
2018-09-14T23:51:56.600Z,14.10
2018-09-14T23:54:25.566Z,14.16
2018-09-14T23:56:54.558Z,14.17
2018-09-14T23:59:23.553Z,14.25
